sensor_id;sensor_type;location;lat;lon;timestamp;pressure;altitude;pressure_sealevel;temperature;humidity
9474;BME280;8865;47.636;7.692;2022-08-05T00:00:33;97968.44;;;24.43;95.56
9474;BME280;8865;47.636;7.692;2022-08-05T00:02:59;97969.97;;;24.39;96.56
9474;BME280;8865;47.636;7.692;2022-08-05T00:05:25;97975.47;;;24.56;95.96
9474;BME280;8865;47.636;7.692;2022-08-05T00:07:51;97960.22;;;24.56;94.34
9474;BME280;8865;47.636;7.692;2022-08-05T00:10:17;97957.84;;;24.67;96.15
9474;BME280;8865;47.636;7.692;2022-08-05T00:12:43;97959.59;;;24.73;95.52
9474;BME280;8865;47.636;7.692;2022-08-05T00:15:09;97960.03;;;24.70;95.67
9474;BME280;8865;47.636;7.692;2022-08-05T00:17:35;97943.09;;;24.46;96.41
9474;BME280;8865;47.636;7.692;2022-08-05T00:20:01;97936.34;;;24.55;96.66
9474;BME280;8865;47.636;7.692;2022-08-05T00:22:27;97932.72;;;24.49;95.82
9474;BME280;8865;47.636;7.692;2022-08-05T00:24:53;97940.28;;;24.52;96.93
9474;BME280;8865;47.636;7.692;2022-08-05T00:27:19;97940.06;;;24.54;98.38
9474;BME280;8865;47.636;7.692;2022-08-05T00:29:45;97944.00;;;24.39;98.19
9474;BME280;8865;47.636;7.692;2022-08-05T00:32:11;97943.31;;;24.44;99.23
9474;BME280;8865;47.636;7.692;2022-08-05T00:34:39;97948.56;;;24.39;99.72
9474;BME280;8865;47.636;7.692;2022-08-05T00:37:05;97941.56;;;24.38;100.00
9474;BME280;8865;47.636;7.692;2022-08-05T00:39:31;97951.09;;;24.34;100.00
9474;BME280;8865;47.636;7.692;2022-08-05T00:41:57;97948.06;;;24.30;100.00
9474;BME280;8865;47.636;7.692;2022-08-05T00:44:23;97948.75;;;24.25;100.00
9474;BME280;8865;47.636;7.692;2022-08-05T00:46:49;97945.34;;;24.18;100.00
9474;BME280;8865;47.636;7.692;2022-08-05T00:49:15;97941.47;;;24.14;100.00
9474;BME280;8865;47.636;7.692;2022-08-05T00:51:44;97949.38;;;24.09;100.00
9474;BME280;8865;47.636;7.692;2022-08-05T00:54:11;97943.28;;;24.02;100.00
9474;BME280;8865;47.636;7.692;2022-08-05T00:56:38;97954.44;;;23.99;100.00
9474;BME280;8865;47.636;7.692;2022-08-05T00:59:05;97952.84;;;23.98;100.00
9474;BME280;8865;47.636;7.692;2022-08-05T01:01:32;97957.56;;;23.96;100.00
9474;BME280;8865;47.636;7.692;2022-08-05T01:03:57;97960.69;;;23.93;100.00
9474;BME280;8865;47.636;7.692;2022-08-05T01:06:24;97966.50;;;23.89;100.00
9474;BME280;8865;47.636;7.692;2022-08-05T01:08:49;97968.03;;;23.85;100.00
9474;BME280;8865;47.636;7.692;2022-08-05T01:11:22;97961.16;;;23.71;100.00
9474;BME280;8865;47.636;7.692;2022-08-05T01:14:05;97960.94;;;23.72;100.00
9474;BME280;8865;47.636;7.692;2022-08-05T01:28:14;97970.47;;;23.50;100.00
9474;BME280;8865;47.636;7.692;2022-08-05T01:33:32;97976.47;;;23.45;100.00
9474;BME280;8865;47.636;7.692;2022-08-05T01:36:00;97976.94;;;23.42;100.00
9474;BME280;8865;47.636;7.692;2022-08-05T01:38:29;97978.97;;;23.40;100.00
9474;BME280;8865;47.636;7.692;2022-08-05T01:40:58;97976.97;;;23.35;100.00
9474;BME280;8865;47.636;7.692;2022-08-05T01:43:26;97978.91;;;23.28;100.00
9474;BME280;8865;47.636;7.692;2022-08-05T01:45:54;97977.72;;;23.24;100.00
9474;BME280;8865;47.636;7.692;2022-08-05T01:48:21;97982.06;;;23.18;100.00
9474;BME280;8865;47.636;7.692;2022-08-05T01:50:49;97984.59;;;23.13;100.00
9474;BME280;8865;47.636;7.692;2022-08-05T01:53:16;97973.13;;;23.06;100.00
9474;BME280;8865;47.636;7.692;2022-08-05T01:55:46;97976.00;;;23.05;100.00
9474;BME280;8865;47.636;7.692;2022-08-05T01:58:15;97979.94;;;23.02;100.00
9474;BME280;8865;47.636;7.692;2022-08-05T02:00:48;97979.13;;;23.01;100.00
9474;BME280;8865;47.636;7.692;2022-08-05T02:03:25;97980.38;;;22.99;100.00
9474;BME280;8865;47.636;7.692;2022-08-05T02:05:53;97981.47;;;22.91;100.00
9474;BME280;8865;47.636;7.692;2022-08-05T02:08:20;97968.78;;;22.87;100.00
9474;BME280;8865;47.636;7.692;2022-08-05T02:10:58;97969.28;;;22.77;100.00
9474;BME280;8865;47.636;7.692;2022-08-05T02:13:33;97975.06;;;22.74;100.00
9474;BME280;8865;47.636;7.692;2022-08-05T02:16:06;97982.47;;;22.72;100.00
9474;BME280;8865;47.636;7.692;2022-08-05T02:18:48;97983.94;;;22.68;100.00
9474;BME280;8865;47.636;7.692;2022-08-05T02:21:23;97982.50;;;22.65;100.00
9474;BME280;8865;47.636;7.692;2022-08-05T02:23:54;97979.47;;;22.61;100.00
9474;BME280;8865;47.636;7.692;2022-08-05T02:26:24;97978.03;;;22.59;100.00
9474;BME280;8865;47.636;7.692;2022-08-05T02:28:53;97988.13;;;22.57;100.00
9474;BME280;8865;47.636;7.692;2022-08-05T02:31:22;97983.22;;;22.54;100.00
9474;BME280;8865;47.636;7.692;2022-08-05T02:33:56;97986.91;;;22.53;100.00
9474;BME280;8865;47.636;7.692;2022-08-05T02:36:24;97991.66;;;22.51;100.00
9474;BME280;8865;47.636;7.692;2022-08-05T02:38:52;97993.72;;;22.49;100.00
9474;BME280;8865;47.636;7.692;2022-08-05T02:41:21;97991.28;;;22.47;100.00
9474;BME280;8865;47.636;7.692;2022-08-05T02:43:49;97997.84;;;22.44;100.00
9474;BME280;8865;47.636;7.692;2022-08-05T02:46:17;97999.09;;;22.42;100.00
9474;BME280;8865;47.636;7.692;2022-08-05T02:48:45;97997.69;;;22.39;100.00
9474;BME280;8865;47.636;7.692;2022-08-05T02:51:14;97996.03;;;22.38;100.00
9474;BME280;8865;47.636;7.692;2022-08-05T02:53:41;97998.91;;;22.37;100.00
9474;BME280;8865;47.636;7.692;2022-08-05T02:56:08;98002.81;;;22.34;100.00
9474;BME280;8865;47.636;7.692;2022-08-05T02:58:38;98002.44;;;22.31;100.00
9474;BME280;8865;47.636;7.692;2022-08-05T03:01:06;98008.59;;;22.31;100.00
9474;BME280;8865;47.636;7.692;2022-08-05T03:03:38;98003.66;;;22.28;100.00
9474;BME280;8865;47.636;7.692;2022-08-05T03:06:07;97997.72;;;22.26;100.00
9474;BME280;8865;47.636;7.692;2022-08-05T03:08:35;97996.28;;;22.23;100.00
9474;BME280;8865;47.636;7.692;2022-08-05T03:11:02;98004.28;;;22.23;100.00
9474;BME280;8865;47.636;7.692;2022-08-05T03:13:28;98004.50;;;22.22;100.00
9474;BME280;8865;47.636;7.692;2022-08-05T03:15:54;97994.25;;;22.19;100.00
9474;BME280;8865;47.636;7.692;2022-08-05T03:18:20;97996.34;;;22.17;100.00
9474;BME280;8865;47.636;7.692;2022-08-05T03:20:46;97996.75;;;22.14;100.00
9474;BME280;8865;47.636;7.692;2022-08-05T03:23:12;97986.91;;;22.14;100.00
9474;BME280;8865;47.636;7.692;2022-08-05T03:25:39;97985.88;;;22.15;100.00
9474;BME280;8865;47.636;7.692;2022-08-05T03:28:07;97977.88;;;22.15;100.00
9474;BME280;8865;47.636;7.692;2022-08-05T03:30:33;97988.56;;;22.08;100.00
9474;BME280;8865;47.636;7.692;2022-08-05T03:33:02;97978.53;;;22.10;100.00
9474;BME280;8865;47.636;7.692;2022-08-05T03:35:29;97982.22;;;22.09;100.00
9474;BME280;8865;47.636;7.692;2022-08-05T03:37:56;97977.69;;;22.10;100.00
9474;BME280;8865;47.636;7.692;2022-08-05T03:40:23;97980.34;;;22.10;100.00
9474;BME280;8865;47.636;7.692;2022-08-05T03:42:49;97982.47;;;22.01;100.00
9474;BME280;8865;47.636;7.692;2022-08-05T03:45:15;97975.97;;;21.90;100.00
9474;BME280;8865;47.636;7.692;2022-08-05T03:47:41;97979.84;;;21.88;100.00
9474;BME280;8865;47.636;7.692;2022-08-05T03:50:07;97982.91;;;21.91;100.00
9474;BME280;8865;47.636;7.692;2022-08-05T03:52:48;97985.34;;;21.93;100.00
9474;BME280;8865;47.636;7.692;2022-08-05T03:55:23;97980.44;;;21.97;100.00
9474;BME280;8865;47.636;7.692;2022-08-05T03:57:51;97976.72;;;21.98;100.00
9474;BME280;8865;47.636;7.692;2022-08-05T04:00:18;97979.59;;;21.96;100.00
9474;BME280;8865;47.636;7.692;2022-08-05T04:02:51;97973.06;;;21.92;100.00
9474;BME280;8865;47.636;7.692;2022-08-05T04:05:20;97970.84;;;21.89;100.00
9474;BME280;8865;47.636;7.692;2022-08-05T04:07:47;97971.25;;;21.86;100.00
9474;BME280;8865;47.636;7.692;2022-08-05T04:10:13;97974.94;;;21.85;100.00
9474;BME280;8865;47.636;7.692;2022-08-05T04:12:41;97974.94;;;21.85;100.00
9474;BME280;8865;47.636;7.692;2022-08-05T04:15:07;97971.25;;;21.86;100.00
9474;BME280;8865;47.636;7.692;2022-08-05T04:17:35;97978.00;;;21.88;100.00
9474;BME280;8865;47.636;7.692;2022-08-05T04:20:01;97983.13;;;21.90;100.00
9474;BME280;8865;47.636;7.692;2022-08-05T04:22:27;97975.31;;;21.88;100.00
9474;BME280;8865;47.636;7.692;2022-08-05T04:24:53;97978.84;;;21.89;100.00
9474;BME280;8865;47.636;7.692;2022-08-05T04:27:19;97983.31;;;21.88;100.00
9474;BME280;8865;47.636;7.692;2022-08-05T04:29:46;97988.88;;;21.93;100.00
9474;BME280;8865;47.636;7.692;2022-08-05T04:32:12;97991.50;;;22.00;100.00
9474;BME280;8865;47.636;7.692;2022-08-05T04:34:38;97987.38;;;21.98;100.00
9474;BME280;8865;47.636;7.692;2022-08-05T04:37:04;97985.78;;;21.97;100.00
9474;BME280;8865;47.636;7.692;2022-08-05T04:39:30;97984.50;;;22.06;100.00
9474;BME280;8865;47.636;7.692;2022-08-05T04:41:56;97988.19;;;22.05;100.00
9474;BME280;8865;47.636;7.692;2022-08-05T04:44:22;97986.91;;;22.14;100.00
9474;BME280;8865;47.636;7.692;2022-08-05T04:46:48;97996.72;;;22.20;100.00
9474;BME280;8865;47.636;7.692;2022-08-05T04:49:14;97999.78;;;22.24;100.00
9474;BME280;8865;47.636;7.692;2022-08-05T04:51:42;98004.06;;;22.25;100.00
9474;BME280;8865;47.636;7.692;2022-08-05T04:54:09;98015.56;;;22.32;100.00
9474;BME280;8865;47.636;7.692;2022-08-05T04:56:34;98024.59;;;22.38;100.00
9474;BME280;8865;47.636;7.692;2022-08-05T04:59:00;98037.28;;;22.42;100.00
9474;BME280;8865;47.636;7.692;2022-08-05T05:01:26;98059.38;;;22.50;100.00
9474;BME280;8865;47.636;7.692;2022-08-05T05:03:52;98073.25;;;22.65;100.00
9474;BME280;8865;47.636;7.692;2022-08-05T05:06:18;98091.28;;;22.76;100.00
9474;BME280;8865;47.636;7.692;2022-08-05T05:08:44;98094.28;;;22.87;100.00
9474;BME280;8865;47.636;7.692;2022-08-05T05:11:10;98083.25;;;23.08;100.00
9474;BME280;8865;47.636;7.692;2022-08-05T05:13:36;98073.63;;;23.32;100.00
9474;BME280;8865;47.636;7.692;2022-08-05T05:16:03;98061.28;;;23.57;100.00
9474;BME280;8865;47.636;7.692;2022-08-05T05:18:30;98066.88;;;23.74;100.00
9474;BME280;8865;47.636;7.692;2022-08-05T05:20:56;98066.13;;;23.85;100.00
9474;BME280;8865;47.636;7.692;2022-08-05T05:23:22;98063.69;;;24.02;100.00
9474;BME280;8865;47.636;7.692;2022-08-05T05:25:47;98059.16;;;24.21;100.00
9474;BME280;8865;47.636;7.692;2022-08-05T05:28:14;98061.56;;;24.41;100.00
9474;BME280;8865;47.636;7.692;2022-08-05T05:30:40;98062.97;;;24.62;100.00
9474;BME280;8865;47.636;7.692;2022-08-05T05:33:06;98064.03;;;24.85;100.00
9474;BME280;8865;47.636;7.692;2022-08-05T05:35:33;98057.09;;;25.07;100.00
9474;BME280;8865;47.636;7.692;2022-08-05T05:38:00;98050.25;;;25.23;100.00
9474;BME280;8865;47.636;7.692;2022-08-05T05:40:29;98035.59;;;25.38;100.00
9474;BME280;8865;47.636;7.692;2022-08-05T05:42:56;98040.38;;;25.47;100.00
9474;BME280;8865;47.636;7.692;2022-08-05T05:45:22;98041.41;;;25.58;99.08
9474;BME280;8865;47.636;7.692;2022-08-05T05:47:48;98039.09;;;25.38;99.90
9474;BME280;8865;47.636;7.692;2022-08-05T05:50:16;98041.22;;;25.48;100.00
9474;BME280;8865;47.636;7.692;2022-08-05T05:52:43;98033.50;;;25.52;100.00
9474;BME280;8865;47.636;7.692;2022-08-05T05:55:11;98028.00;;;25.70;100.00
9474;BME280;8865;47.636;7.692;2022-08-05T05:57:38;98027.97;;;25.82;100.00
9474;BME280;8865;47.636;7.692;2022-08-05T06:00:06;98025.47;;;25.92;100.00
9474;BME280;8865;47.636;7.692;2022-08-05T06:02:33;98035.75;;;25.95;100.00
9474;BME280;8865;47.636;7.692;2022-08-05T06:04:59;98037.50;;;26.01;100.00
9474;BME280;8865;47.636;7.692;2022-08-05T06:07:25;98036.47;;;26.02;100.00
9474;BME280;8865;47.636;7.692;2022-08-05T06:09:51;98043.94;;;26.00;100.00
9474;BME280;8865;47.636;7.692;2022-08-05T06:12:17;98056.41;;;25.95;100.00
9474;BME280;8865;47.636;7.692;2022-08-05T06:14:43;98060.38;;;25.92;100.00
9474;BME280;8865;47.636;7.692;2022-08-05T06:17:10;98062.47;;;25.90;100.00
9474;BME280;8865;47.636;7.692;2022-08-05T06:19:37;98052.56;;;25.91;100.00
9474;BME280;8865;47.636;7.692;2022-08-05T06:22:04;98058.75;;;25.91;100.00
9474;BME280;8865;47.636;7.692;2022-08-05T06:24:31;98061.06;;;25.88;100.00
9474;BME280;8865;47.636;7.692;2022-08-05T06:26:57;98069.50;;;25.91;100.00
9474;BME280;8865;47.636;7.692;2022-08-05T06:29:23;98074.75;;;25.98;100.00
9474;BME280;8865;47.636;7.692;2022-08-05T06:31:49;98083.00;;;25.96;100.00
9474;BME280;8865;47.636;7.692;2022-08-05T06:34:16;98080.56;;;25.95;100.00
9474;BME280;8865;47.636;7.692;2022-08-05T06:36:42;98089.41;;;25.95;100.00
9474;BME280;8865;47.636;7.692;2022-08-05T06:39:08;98099.00;;;26.03;100.00
9474;BME280;8865;47.636;7.692;2022-08-05T06:41:34;98101.22;;;25.82;100.00
9474;BME280;8865;47.636;7.692;2022-08-05T06:44:01;98110.09;;;25.71;100.00
9474;BME280;8865;47.636;7.692;2022-08-05T06:46:27;98115.56;;;25.64;100.00
9474;BME280;8865;47.636;7.692;2022-08-05T06:48:53;98126.44;;;25.70;100.00
9474;BME280;8865;47.636;7.692;2022-08-05T06:51:19;98127.59;;;25.62;100.00
9474;BME280;8865;47.636;7.692;2022-08-05T06:53:45;98126.44;;;25.58;100.00
9474;BME280;8865;47.636;7.692;2022-08-05T06:56:11;98135.75;;;25.67;100.00
9474;BME280;8865;47.636;7.692;2022-08-05T06:58:37;98130.50;;;25.84;100.00
9474;BME280;8865;47.636;7.692;2022-08-05T07:01:04;98128.41;;;26.10;100.00
9474;BME280;8865;47.636;7.692;2022-08-05T07:03:31;98128.09;;;26.35;100.00
9474;BME280;8865;47.636;7.692;2022-08-05T07:05:58;98129.19;;;26.63;99.05
9474;BME280;8865;47.636;7.692;2022-08-05T07:08:24;98125.81;;;26.67;98.51
9474;BME280;8865;47.636;7.692;2022-08-05T07:10:50;98132.47;;;27.11;96.59
9474;BME280;8865;47.636;7.692;2022-08-05T07:13:16;98132.00;;;27.31;93.94
9474;BME280;8865;47.636;7.692;2022-08-05T07:16:01;98123.56;;;27.56;91.40
9474;BME280;8865;47.636;7.692;2022-08-05T07:18:45;98125.19;;;27.74;89.56
9474;BME280;8865;47.636;7.692;2022-08-05T07:21:11;98125.91;;;27.86;88.72
9474;BME280;8865;47.636;7.692;2022-08-05T07:23:37;98124.38;;;27.56;90.28
9474;BME280;8865;47.636;7.692;2022-08-05T07:26:03;98132.59;;;27.84;88.11
9474;BME280;8865;47.636;7.692;2022-08-05T07:28:30;98125.59;;;27.66;89.65
9474;BME280;8865;47.636;7.692;2022-08-05T07:30:56;98131.88;;;27.71;88.76
9474;BME280;8865;47.636;7.692;2022-08-05T07:33:22;98128.44;;;27.76;88.19
9474;BME280;8865;47.636;7.692;2022-08-05T07:35:48;98139.00;;;28.00;87.26
9474;BME280;8865;47.636;7.692;2022-08-05T07:38:15;98136.19;;;27.72;88.52
9474;BME280;8865;47.636;7.692;2022-08-05T07:40:42;98144.97;;;28.24;84.63
9474;BME280;8865;47.636;7.692;2022-08-05T07:43:09;98150.75;;;28.55;82.26
9474;BME280;8865;47.636;7.692;2022-08-05T07:45:35;98149.38;;;28.74;80.97
9474;BME280;8865;47.636;7.692;2022-08-05T07:48:01;98154.31;;;28.82;78.15
9474;BME280;8865;47.636;7.692;2022-08-05T07:50:27;98157.38;;;28.91;77.93
9474;BME280;8865;47.636;7.692;2022-08-05T07:52:53;98160.47;;;29.05;77.34
9474;BME280;8865;47.636;7.692;2022-08-05T07:55:19;98165.34;;;29.08;75.03
9474;BME280;8865;47.636;7.692;2022-08-05T07:57:45;98162.75;;;29.18;72.70
9474;BME280;8865;47.636;7.692;2022-08-05T08:00:11;98161.25;;;29.28;74.39
9474;BME280;8865;47.636;7.692;2022-08-05T08:02:39;98163.50;;;29.41;74.25
9474;BME280;8865;47.636;7.692;2022-08-05T08:05:06;98163.47;;;29.36;72.50
9474;BME280;8865;47.636;7.692;2022-08-05T08:07:32;98155.72;;;29.17;70.55
9474;BME280;8865;47.636;7.692;2022-08-05T08:09:58;98153.34;;;29.21;70.29
9474;BME280;8865;47.636;7.692;2022-08-05T08:12:24;98150.84;;;29.14;70.18
9474;BME280;8865;47.636;7.692;2022-08-05T08:14:50;98143.47;;;29.32;69.53
9474;BME280;8865;47.636;7.692;2022-08-05T08:17:16;98148.31;;;29.30;70.26
9474;BME280;8865;47.636;7.692;2022-08-05T08:19:44;98159.72;;;29.37;70.49
9474;BME280;8865;47.636;7.692;2022-08-05T08:22:10;98161.44;;;29.86;70.01
9474;BME280;8865;47.636;7.692;2022-08-05T08:24:37;98156.13;;;30.01;66.91
9474;BME280;8865;47.636;7.692;2022-08-05T08:27:04;98149.84;;;30.43;64.35
9474;BME280;8865;47.636;7.692;2022-08-05T08:29:31;98149.44;;;30.19;63.98
9474;BME280;8865;47.636;7.692;2022-08-05T08:31:57;98148.03;;;30.59;61.88
9474;BME280;8865;47.636;7.692;2022-08-05T08:34:25;98147.91;;;31.23;60.13
9474;BME280;8865;47.636;7.692;2022-08-05T08:36:52;98144.34;;;31.07;57.27
9474;BME280;8865;47.636;7.692;2022-08-05T08:39:19;98143.03;;;31.50;59.38
9474;BME280;8865;47.636;7.692;2022-08-05T08:41:47;98145.47;;;31.78;56.93
9474;BME280;8865;47.636;7.692;2022-08-05T08:44:17;98142.41;;;32.00;55.31
9474;BME280;8865;47.636;7.692;2022-08-05T08:46:46;98127.53;;;32.02;54.52
9474;BME280;8865;47.636;7.692;2022-08-05T08:49:13;98133.38;;;32.35;52.59
9474;BME280;8865;47.636;7.692;2022-08-05T08:51:41;98136.16;;;32.20;52.82
9474;BME280;8865;47.636;7.692;2022-08-05T08:54:09;98138.56;;;32.21;52.48
9474;BME280;8865;47.636;7.692;2022-08-05T08:56:38;98137.22;;;32.19;53.66
9474;BME280;8865;47.636;7.692;2022-08-05T08:59:04;98127.25;;;32.04;52.19
9474;BME280;8865;47.636;7.692;2022-08-05T09:01:31;98132.97;;;31.82;53.05
9474;BME280;8865;47.636;7.692;2022-08-05T09:03:58;98130.25;;;31.82;52.92
9474;BME280;8865;47.636;7.692;2022-08-05T09:06:26;98131.94;;;31.62;53.64
9474;BME280;8865;47.636;7.692;2022-08-05T09:08:53;98135.72;;;31.25;54.78
9474;BME280;8865;47.636;7.692;2022-08-05T09:11:19;98135.19;;;31.18;56.24
9474;BME280;8865;47.636;7.692;2022-08-05T09:13:45;98130.59;;;31.70;56.98
9474;BME280;8865;47.636;7.692;2022-08-05T09:16:12;98126.19;;;31.95;59.19
9474;BME280;8865;47.636;7.692;2022-08-05T09:18:38;98118.47;;;32.33;59.13
9474;BME280;8865;47.636;7.692;2022-08-05T09:21:05;98122.06;;;32.13;53.70
9474;BME280;8865;47.636;7.692;2022-08-05T09:23:31;98123.25;;;31.76;54.09
9474;BME280;8865;47.636;7.692;2022-08-05T09:26:08;98124.19;;;32.26;52.77
9474;BME280;8865;47.636;7.692;2022-08-05T09:28:36;98114.09;;;32.92;52.24
9474;BME280;8865;47.636;7.692;2022-08-05T09:31:07;98112.91;;;33.43;53.04
9474;BME280;8865;47.636;7.692;2022-08-05T09:33:52;98114.69;;;34.06;49.85
9474;BME280;8865;47.636;7.692;2022-08-05T09:36:18;98114.34;;;34.37;49.49
9474;BME280;8865;47.636;7.692;2022-08-05T09:38:58;98120.63;;;34.57;44.85
9474;BME280;8865;47.636;7.692;2022-08-05T09:41:25;98126.34;;;34.12;44.26
9474;BME280;8865;47.636;7.692;2022-08-05T09:43:51;98118.13;;;33.34;44.79
9474;BME280;8865;47.636;7.692;2022-08-05T09:48:56;98121.22;;;34.53;42.38
9474;BME280;8865;47.636;7.692;2022-08-05T09:51:36;98111.94;;;35.12;42.14
9474;BME280;8865;47.636;7.692;2022-08-05T09:54:05;98109.81;;;35.09;42.92
9474;BME280;8865;47.636;7.692;2022-08-05T09:56:34;98109.06;;;35.69;43.49
9474;BME280;8865;47.636;7.692;2022-08-05T09:59:09;98108.84;;;34.18;41.94
9474;BME280;8865;47.636;7.692;2022-08-05T10:01:40;98102.63;;;33.93;42.67
9474;BME280;8865;47.636;7.692;2022-08-05T10:04:12;98109.94;;;34.60;43.60
9474;BME280;8865;47.636;7.692;2022-08-05T10:06:40;98097.09;;;35.04;40.61
9474;BME280;8865;47.636;7.692;2022-08-05T10:09:12;98088.56;;;35.24;40.55
9474;BME280;8865;47.636;7.692;2022-08-05T10:11:39;98089.09;;;36.01;39.03
9474;BME280;8865;47.636;7.692;2022-08-05T10:16:49;98085.38;;;37.21;38.84
9474;BME280;8865;47.636;7.692;2022-08-05T10:19:15;98089.72;;;37.84;37.61
9474;BME280;8865;47.636;7.692;2022-08-05T10:21:41;98085.41;;;38.50;37.65
9474;BME280;8865;47.636;7.692;2022-08-05T10:24:08;98082.34;;;38.51;34.67
9474;BME280;8865;47.636;7.692;2022-08-05T10:26:42;98080.25;;;38.31;35.20
9474;BME280;8865;47.636;7.692;2022-08-05T10:29:09;98077.47;;;37.73;34.60
9474;BME280;8865;47.636;7.692;2022-08-05T10:31:36;98074.16;;;38.78;34.08
9474;BME280;8865;47.636;7.692;2022-08-05T10:34:03;98068.34;;;38.70;32.61
9474;BME280;8865;47.636;7.692;2022-08-05T10:36:29;98067.91;;;41.03;30.50
9474;BME280;8865;47.636;7.692;2022-08-05T10:39:01;98068.50;;;41.09;27.82
9474;BME280;8865;47.636;7.692;2022-08-05T10:41:33;98066.13;;;41.20;27.72
9474;BME280;8865;47.636;7.692;2022-08-05T10:44:11;98064.03;;;43.69;26.56
9474;BME280;8865;47.636;7.692;2022-08-05T10:46:52;98056.25;;;44.82;24.34
9474;BME280;8865;47.636;7.692;2022-08-05T10:49:19;98042.03;;;45.72;21.99
9474;BME280;8865;47.636;7.692;2022-08-05T10:51:50;98044.22;;;47.52;21.99
9474;BME280;8865;47.636;7.692;2022-08-05T10:54:24;98037.75;;;48.77;20.27
9474;BME280;8865;47.636;7.692;2022-08-05T10:57:11;98057.69;;;46.75;19.07
9474;BME280;8865;47.636;7.692;2022-08-05T10:59:37;98054.19;;;45.18;19.79
9474;BME280;8865;47.636;7.692;2022-08-05T11:02:13;98050.72;;;42.26;22.44
9474;BME280;8865;47.636;7.692;2022-08-05T11:04:47;98058.88;;;41.49;22.97
9474;BME280;8865;47.636;7.692;2022-08-05T11:07:14;98056.44;;;39.87;23.76
9474;BME280;8865;47.636;7.692;2022-08-05T11:17:41;98064.69;;;34.88;36.28
9474;BME280;8865;47.636;7.692;2022-08-05T11:22:57;98063.50;;;35.88;70.13
9474;BME280;8865;47.636;7.692;2022-08-05T11:27:57;98052.47;;;37.26;82.09
9474;BME280;8865;47.636;7.692;2022-08-05T11:33:30;98054.06;;;36.22;55.73
9474;BME280;8865;47.636;7.692;2022-08-05T11:35:59;98058.91;;;35.42;65.65
9474;BME280;8865;47.636;7.692;2022-08-05T11:41:21;98050.56;;;34.86;65.92
9474;BME280;8865;47.636;7.692;2022-08-05T11:44:10;98057.91;;;36.58;60.62
9474;BME280;8865;47.636;7.692;2022-08-05T11:46:40;98059.44;;;39.26;49.60
9474;BME280;8865;47.636;7.692;2022-08-05T11:49:09;98048.22;;;41.47;37.34
9474;BME280;8865;47.636;7.692;2022-08-05T11:51:36;98048.56;;;42.89;33.23
9474;BME280;8865;47.636;7.692;2022-08-05T11:54:02;98045.31;;;42.99;34.69
9474;BME280;8865;47.636;7.692;2022-08-05T11:56:48;98042.84;;;43.10;28.96
9474;BME280;8865;47.636;7.692;2022-08-05T11:59:19;98036.25;;;43.94;28.78
9474;BME280;8865;47.636;7.692;2022-08-05T12:01:56;98040.94;;;44.65;24.34
9474;BME280;8865;47.636;7.692;2022-08-05T12:04:23;98035.34;;;45.46;24.03
9474;BME280;8865;47.636;7.692;2022-08-05T12:06:50;98035.34;;;45.73;26.77
9474;BME280;8865;47.636;7.692;2022-08-05T12:09:23;98038.34;;;46.45;23.87
9474;BME280;8865;47.636;7.692;2022-08-05T12:11:50;98026.75;;;47.03;24.20
9474;BME280;8865;47.636;7.692;2022-08-05T12:14:16;98027.63;;;47.63;22.06
9474;BME280;8865;47.636;7.692;2022-08-05T12:16:43;98023.41;;;47.80;20.82
9474;BME280;8865;47.636;7.692;2022-08-05T12:19:12;98022.72;;;48.01;21.74
9474;BME280;8865;47.636;7.692;2022-08-05T12:24:16;98024.53;;;47.72;20.44
9474;BME280;8865;47.636;7.692;2022-08-05T12:26:44;98022.09;;;47.67;20.64
9474;BME280;8865;47.636;7.692;2022-08-05T12:29:19;98015.34;;;47.64;19.90
9474;BME280;8865;47.636;7.692;2022-08-05T12:31:51;98017.75;;;48.36;20.55
9474;BME280;8865;47.636;7.692;2022-08-05T12:34:19;98010.44;;;48.02;19.52
9474;BME280;8865;47.636;7.692;2022-08-05T12:36:45;98017.50;;;47.89;18.20
9474;BME280;8865;47.636;7.692;2022-08-05T12:39:12;98009.56;;;46.23;19.50
9474;BME280;8865;47.636;7.692;2022-08-05T12:41:40;98007.94;;;45.64;20.28
9474;BME280;8865;47.636;7.692;2022-08-05T12:44:10;98011.44;;;47.69;19.27
9474;BME280;8865;47.636;7.692;2022-08-05T12:46:40;98004.03;;;48.86;19.04
9474;BME280;8865;47.636;7.692;2022-08-05T12:49:10;98002.84;;;49.05;17.61
9474;BME280;8865;47.636;7.692;2022-08-05T12:54:08;97984.59;;;50.57;17.48
9474;BME280;8865;47.636;7.692;2022-08-05T12:56:40;97988.66;;;50.46;16.01
9474;BME280;8865;47.636;7.692;2022-08-05T12:59:48;97983.06;;;50.46;16.55
9474;BME280;8865;47.636;7.692;2022-08-05T13:02:07;97975.69;;;50.07;16.63
9474;BME280;8865;47.636;7.692;2022-08-05T13:04:41;97976.94;;;49.91;17.00
9474;BME280;8865;47.636;7.692;2022-08-05T13:07:13;97966.66;;;49.66;16.76
9474;BME280;8865;47.636;7.692;2022-08-05T13:09:42;97965.50;;;49.24;17.02
9474;BME280;8865;47.636;7.692;2022-08-05T13:12:14;97961.50;;;48.68;18.03
9474;BME280;8865;47.636;7.692;2022-08-05T13:14:42;97959.09;;;48.66;17.50
9474;BME280;8865;47.636;7.692;2022-08-05T13:17:16;97957.50;;;48.51;17.60
9474;BME280;8865;47.636;7.692;2022-08-05T13:20:12;97949.47;;;48.35;17.80
9474;BME280;8865;47.636;7.692;2022-08-05T13:22:41;97948.75;;;48.52;17.55
9474;BME280;8865;47.636;7.692;2022-08-05T13:25:10;97946.84;;;49.18;17.04
9474;BME280;8865;47.636;7.692;2022-08-05T13:27:48;97954.34;;;49.46;16.60
9474;BME280;8865;47.636;7.692;2022-08-05T13:30:16;97945.13;;;49.78;17.36
9474;BME280;8865;47.636;7.692;2022-08-05T13:32:43;97954.63;;;49.95;15.93
9474;BME280;8865;47.636;7.692;2022-08-05T13:35:14;97949.88;;;49.95;15.95
9474;BME280;8865;47.636;7.692;2022-08-05T13:37:41;97936.06;;;49.41;15.67
9474;BME280;8865;47.636;7.692;2022-08-05T13:40:08;97935.31;;;49.26;16.07
9474;BME280;8865;47.636;7.692;2022-08-05T13:42:35;97936.03;;;49.48;16.19
9474;BME280;8865;47.636;7.692;2022-08-05T13:45:02;97929.28;;;49.46;15.29
9474;BME280;8865;47.636;7.692;2022-08-05T13:47:28;97931.31;;;49.27;16.73
9474;BME280;8865;47.636;7.692;2022-08-05T13:49:54;97928.53;;;49.27;16.73
9474;BME280;8865;47.636;7.692;2022-08-05T13:52:23;97930.13;;;49.14;16.94
9474;BME280;8865;47.636;7.692;2022-08-05T13:54:55;97927.75;;;48.94;16.46
9474;BME280;8865;47.636;7.692;2022-08-05T13:57:21;97926.72;;;48.00;18.11
9474;BME280;8865;47.636;7.692;2022-08-05T13:59:48;97934.94;;;47.75;17.92
9474;BME280;8865;47.636;7.692;2022-08-05T14:02:15;97931.66;;;47.58;17.85
9474;BME280;8865;47.636;7.692;2022-08-05T14:04:44;97926.00;;;47.40;18.59
9474;BME280;8865;47.636;7.692;2022-08-05T14:07:32;97935.63;;;46.61;17.94